createdAt,value
2022-10-14T00:02:18.382Z,8.52
2022-10-14T00:05:20.536Z,8.20
2022-10-14T00:08:23.745Z,8.18
2022-10-14T00:11:28.631Z,8.80
2022-10-14T00:14:30.637Z,7.72
2022-10-14T00:17:34.524Z,8.25
2022-10-14T00:23:38.514Z,7.55
2022-10-14T00:26:43.044Z,8.38
2022-10-14T00:29:44.952Z,8.00
2022-10-14T00:32:47.023Z,8.75
2022-10-14T00:36:00.571Z,9.00
2022-10-14T00:39:08.811Z,8.55
2022-10-14T00:42:15.471Z,8.25
2022-10-14T00:45:22.858Z,8.75
2022-10-14T00:48:26.828Z,8.35
2022-10-14T00:51:30.909Z,7.70
2022-10-14T00:54:40.411Z,7.53
2022-10-14T00:57:43.046Z,7.60
2022-10-14T01:00:44.990Z,8.18
2022-10-14T01:03:47.361Z,8.30
2022-10-14T01:07:09.807Z,8.57
2022-10-14T01:10:14.614Z,7.93
2022-10-14T01:13:29.264Z,8.50
2022-10-14T01:16:38.034Z,7.75
2022-10-14T01:19:58.182Z,8.68
2022-10-14T01:23:24.578Z,8.40
2022-10-14T01:30:35.865Z,6.88
2022-10-14T01:33:42.788Z,7.57
2022-10-14T01:36:58.099Z,7.57
2022-10-14T01:40:06.964Z,7.43
2022-10-14T01:43:12.527Z,6.63
2022-10-14T01:46:17.170Z,7.60
2022-10-14T01:49:37.802Z,7.60
2022-10-14T01:53:00.841Z,6.85
2022-10-14T01:56:03.946Z,7.00
2022-10-14T01:59:09.770Z,7.03
2022-10-14T02:02:14.858Z,6.80
2022-10-14T02:05:32.402Z,6.75
2022-10-14T02:09:02.915Z,6.95
2022-10-14T02:12:16.390Z,8.05
2022-10-14T02:15:31.877Z,7.57
2022-10-14T02:18:51.679Z,7.32
2022-10-14T02:22:18.595Z,7.65
2022-10-14T02:25:31.658Z,8.07
2022-10-14T02:28:34.738Z,7.57
2022-10-14T02:31:39.726Z,7.85
2022-10-14T02:34:44.181Z,7.88
2022-10-14T02:37:48.692Z,7.15
2022-10-14T02:40:51.869Z,7.18
2022-10-14T02:43:53.894Z,7.57
2022-10-14T02:46:59.932Z,6.68
2022-10-14T02:50:05.014Z,7.82
2022-10-14T02:53:07.052Z,7.95
2022-10-14T02:56:10.801Z,7.18
2022-10-14T02:59:12.912Z,7.57
2022-10-14T03:02:14.927Z,8.27
2022-10-14T03:05:17.462Z,7.60
2022-10-14T03:08:19.654Z,7.38
2022-10-14T03:11:22.318Z,7.60
2022-10-14T03:14:26.478Z,7.40
2022-10-14T03:17:29.076Z,7.03
2022-10-14T03:20:37.851Z,7.40
2022-10-14T03:23:42.325Z,7.10
2022-10-14T03:26:44.451Z,6.32
2022-10-14T03:29:47.345Z,7.00
2022-10-14T03:32:55.153Z,6.93
2022-10-14T03:36:15.996Z,6.47
2022-10-14T03:39:25.957Z,6.47
2022-10-14T03:42:28.715Z,7.00
2022-10-14T03:45:30.941Z,5.93
2022-10-14T03:48:34.107Z,5.45
2022-10-14T03:51:36.868Z,7.13
2022-10-14T03:54:50.132Z,6.10
2022-10-14T03:57:52.262Z,5.95
2022-10-14T04:00:55.006Z,6.47
2022-10-14T04:04:07.955Z,6.13
2022-10-14T04:07:11.118Z,5.95
2022-10-14T04:13:20.553Z,6.00
2022-10-14T04:16:22.812Z,5.28
2022-10-14T04:19:38.034Z,5.20
2022-10-14T04:22:40.159Z,5.60
2022-10-14T04:25:42.329Z,5.32
2022-10-14T04:28:44.453Z,5.60
2022-10-14T04:31:50.521Z,5.28
2022-10-14T04:34:54.685Z,4.88
2022-10-14T04:37:59.806Z,5.15
2022-10-14T04:41:04.775Z,4.88
2022-10-14T04:44:07.356Z,5.25
2022-10-14T04:47:20.170Z,4.80
2022-10-14T04:50:29.923Z,4.55
2022-10-14T04:53:50.601Z,4.13
2022-10-14T04:57:15.261Z,3.92
2022-10-14T05:00:22.523Z,4.53
2022-10-14T05:03:28.878Z,4.60
2022-10-14T05:06:32.290Z,4.32
2022-10-14T05:09:34.319Z,5.03
2022-10-14T05:12:39.021Z,4.93
2022-10-14T05:15:41.648Z,4.07
2022-10-14T05:18:47.240Z,6.22
2022-10-14T05:21:49.644Z,4.60
2022-10-14T05:24:59.900Z,3.88
2022-10-14T05:28:02.541Z,4.57
2022-10-14T05:31:05.857Z,4.65
2022-10-14T05:34:13.208Z,4.80
2022-10-14T05:37:18.173Z,5.78
2022-10-14T05:40:25.217Z,4.50
2022-10-14T05:43:32.400Z,5.43
2022-10-14T05:46:41.765Z,4.32
2022-10-14T05:49:43.893Z,4.47
2022-10-14T05:52:48.282Z,4.35
2022-10-14T05:56:08.721Z,4.68
2022-10-14T05:59:13.535Z,3.90
2022-10-14T06:02:16.504Z,4.38
2022-10-14T06:05:18.678Z,4.35
2022-10-14T06:08:20.743Z,3.70
2022-10-14T06:11:22.874Z,4.03
2022-10-14T06:14:25.584Z,4.60
2022-10-14T06:20:30.903Z,4.28
2022-10-14T06:23:32.911Z,4.80
2022-10-14T06:26:35.181Z,4.75
2022-10-14T06:29:37.227Z,4.88
2022-10-14T06:32:39.412Z,5.00
2022-10-14T06:35:41.470Z,4.03
2022-10-14T06:38:43.629Z,3.72
2022-10-14T06:41:45.692Z,4.70
2022-10-14T06:47:56.873Z,3.90
2022-10-14T06:51:02.054Z,4.90
2022-10-14T06:54:04.087Z,4.38
2022-10-14T06:57:06.027Z,4.45
2022-10-14T07:00:08.647Z,4.63
2022-10-14T07:03:10.869Z,3.90
2022-10-14T07:06:12.986Z,4.10
2022-10-14T07:09:14.986Z,3.75
2022-10-14T07:12:17.158Z,3.50
2022-10-14T07:15:19.154Z,3.95
2022-10-14T07:18:21.184Z,4.00
2022-10-14T07:21:23.220Z,4.30
2022-10-14T07:24:25.307Z,4.47
2022-10-14T07:27:27.376Z,4.32
2022-10-14T07:30:29.302Z,4.07
2022-10-14T07:33:31.485Z,3.67
2022-10-14T07:36:33.675Z,3.80
2022-10-14T07:39:35.693Z,4.10
2022-10-14T07:42:38.113Z,3.90
2022-10-14T07:45:41.043Z,4.05
2022-10-14T07:48:56.628Z,3.80
2022-10-14T07:51:59.401Z,4.30
2022-10-14T07:55:01.482Z,3.90
2022-10-14T07:58:03.475Z,3.97
2022-10-14T08:01:05.555Z,4.22
2022-10-14T08:04:08.099Z,3.65
2022-10-14T08:07:10.132Z,4.15
2022-10-14T08:10:12.170Z,3.80
2022-10-14T08:13:14.194Z,3.55
2022-10-14T08:16:24.658Z,3.80
2022-10-14T08:19:26.678Z,4.25
2022-10-14T08:22:28.723Z,4.00
2022-10-14T08:25:30.695Z,4.07
2022-10-14T08:28:32.682Z,4.00
2022-10-14T08:31:34.733Z,3.40
2022-10-14T08:34:36.681Z,4.00
2022-10-14T08:37:38.964Z,3.50
2022-10-14T08:44:33.659Z,3.78
2022-10-14T08:47:42.273Z,3.30
2022-10-14T08:50:59.475Z,3.22
2022-10-14T08:54:07.259Z,3.13
2022-10-14T08:57:34.974Z,3.20
2022-10-14T09:00:37.035Z,3.53
2022-10-14T09:03:39.046Z,3.72
2022-10-14T09:06:44.907Z,2.88
2022-10-14T09:09:58.935Z,3.30
2022-10-14T09:16:21.819Z,3.40
2022-10-14T09:19:33.540Z,3.30
2022-10-14T09:22:35.994Z,3.10
2022-10-14T09:25:41.449Z,3.10
2022-10-14T09:28:45.182Z,3.70
2022-10-14T09:31:48.462Z,3.40
2022-10-14T09:34:51.531Z,3.38
2022-10-14T09:37:54.398Z,3.03
2022-10-14T09:41:00.273Z,3.25
2022-10-14T09:44:14.586Z,3.13
2022-10-14T09:50:27.736Z,3.75
2022-10-14T09:53:38.160Z,3.00
2022-10-14T09:56:42.126Z,3.80
2022-10-14T09:59:58.538Z,3.08
2022-10-14T10:03:00.774Z,3.58
2022-10-14T10:06:09.718Z,3.47
2022-10-14T10:09:19.053Z,3.63
2022-10-14T10:12:33.036Z,4.07
2022-10-14T10:15:35.194Z,3.05
2022-10-14T10:21:39.285Z,3.40
2022-10-14T10:27:45.190Z,3.45
2022-10-14T10:31:07.854Z,3.90
2022-10-14T10:34:51.227Z,3.47
2022-10-14T10:38:02.070Z,3.50
2022-10-14T10:41:09.903Z,3.50
2022-10-14T10:44:23.824Z,3.33
2022-10-14T10:47:32.028Z,3.20
2022-10-14T11:03:49.738Z,2.80
2022-10-14T11:06:54.641Z,3.20
2022-10-14T11:10:26.494Z,2.63
2022-10-14T11:13:43.312Z,2.40
2022-10-14T11:17:13.308Z,3.10
2022-10-14T11:20:34.240Z,1.75
2022-10-14T11:23:41.768Z,2.15
2022-10-14T11:27:16.997Z,2.05
2022-10-14T11:30:36.218Z,2.40
2022-10-14T11:34:07.261Z,2.00
2022-10-14T11:37:39.388Z,2.10
2022-10-14T11:41:12.193Z,2.30
2022-10-14T11:44:36.989Z,2.10
2022-10-14T11:47:42.524Z,2.20
2022-10-14T11:50:49.380Z,1.80
2022-10-14T11:54:15.311Z,2.15
2022-10-14T11:57:39.805Z,2.10
2022-10-14T12:00:45.862Z,2.05
2022-10-14T12:04:12.927Z,2.10
2022-10-14T12:07:20.712Z,2.00
2022-10-14T12:10:29.086Z,2.30
2022-10-14T12:16:48.724Z,2.33
2022-10-14T12:19:53.257Z,2.30
2022-10-14T12:22:58.271Z,2.17
2022-10-14T12:26:24.883Z,2.65
2022-10-14T12:29:32.549Z,2.10
2022-10-14T12:32:34.431Z,2.20
2022-10-14T12:35:48.589Z,2.25
2022-10-14T12:39:22.304Z,2.70
2022-10-14T12:42:25.987Z,2.17
2022-10-14T12:45:34.524Z,2.88
2022-10-14T12:48:44.816Z,2.22
2022-10-14T12:51:57.635Z,2.40
2022-10-14T12:55:02.666Z,2.03
2022-10-14T12:58:05.996Z,2.47
2022-10-14T13:01:19.727Z,2.25
2022-10-14T13:04:21.989Z,2.30
2022-10-14T13:07:42.764Z,2.63
2022-10-14T13:10:47.509Z,2.05
2022-10-14T13:13:50.168Z,2.10
2022-10-14T13:16:52.035Z,2.33
2022-10-14T13:19:54.024Z,2.13
2022-10-14T13:23:15.523Z,2.20
2022-10-14T13:26:22.963Z,1.90
2022-10-14T13:29:50.484Z,2.45
2022-10-14T13:32:59.186Z,2.67
2022-10-14T13:36:24.235Z,2.60
2022-10-14T13:39:26.582Z,2.90
2022-10-14T13:42:37.331Z,2.22
2022-10-14T13:45:44.523Z,2.30
2022-10-14T13:48:50.039Z,2.50
2022-10-14T13:51:58.189Z,1.48
2022-10-14T13:58:28.357Z,1.85
2022-10-14T14:01:38.003Z,1.95
2022-10-14T14:04:40.352Z,1.95
2022-10-14T14:11:19.057Z,1.88
2022-10-14T14:14:26.970Z,1.80
2022-10-14T14:17:29.973Z,2.03
2022-10-14T14:20:31.838Z,2.58
2022-10-14T14:23:33.754Z,2.13
2022-10-14T14:26:40.019Z,2.10
2022-10-14T14:29:44.286Z,2.35
2022-10-14T14:32:46.320Z,2.40
2022-10-14T14:35:57.205Z,2.53
2022-10-14T14:39:03.350Z,2.60
2022-10-14T14:42:05.460Z,2.38
2022-10-14T14:45:19.683Z,3.33
2022-10-14T14:48:22.743Z,2.63
2022-10-14T14:51:26.473Z,2.80
2022-10-14T14:54:28.597Z,3.22
2022-10-14T14:57:30.656Z,3.00
2022-10-14T15:00:32.656Z,3.15
2022-10-14T15:04:13.757Z,2.88
2022-10-14T15:07:23.706Z,3.22
2022-10-14T15:10:29.515Z,2.88
2022-10-14T15:13:42.306Z,3.63
2022-10-14T15:16:53.159Z,3.00
2022-10-14T15:19:57.092Z,2.85
2022-10-14T15:23:00.253Z,3.03
2022-10-14T15:26:04.537Z,2.55
2022-10-14T15:29:10.631Z,3.22
2022-10-14T15:32:14.865Z,2.50
2022-10-14T15:35:19.301Z,2.67
2022-10-14T15:38:21.327Z,2.70
2022-10-14T15:41:23.230Z,3.00
2022-10-14T15:44:25.403Z,3.10
2022-10-14T15:50:31.787Z,2.38
2022-10-14T15:53:34.145Z,2.40
2022-10-14T15:56:36.044Z,2.17
2022-10-14T15:59:38.358Z,2.20
2022-10-14T16:02:41.921Z,2.38
2022-10-14T16:05:43.955Z,2.20
2022-10-14T16:08:47.442Z,2.17
2022-10-14T16:11:50.836Z,2.90
2022-10-14T16:17:54.812Z,2.08
2022-10-14T16:20:56.655Z,1.40
2022-10-14T16:23:59.428Z,2.17
2022-10-14T16:27:01.678Z,1.58
2022-10-14T16:30:03.974Z,1.60
2022-10-14T16:36:11.217Z,1.50
2022-10-14T16:39:13.560Z,1.75
2022-10-14T16:45:17.971Z,1.58
2022-10-14T16:48:20.375Z,1.63
2022-10-14T16:51:22.282Z,1.48
2022-10-14T16:54:24.170Z,1.70
2022-10-14T16:57:28.183Z,1.63
2022-10-14T17:00:30.060Z,1.20
2022-10-14T17:03:31.914Z,1.70
2022-10-14T17:06:33.753Z,1.90
2022-10-14T17:09:36.538Z,1.70
2022-10-14T17:12:38.901Z,1.58
2022-10-14T17:15:40.757Z,1.70
2022-10-14T17:18:42.953Z,1.52
2022-10-14T17:21:49.654Z,1.80
2022-10-14T17:24:51.550Z,1.80
2022-10-14T17:27:53.639Z,1.70
2022-10-14T17:30:58.487Z,1.58
2022-10-14T17:34:00.409Z,1.52
2022-10-14T17:37:02.501Z,1.90
2022-10-14T17:40:04.646Z,2.20
2022-10-14T17:46:12.958Z,2.80
2022-10-14T17:49:14.795Z,3.25
2022-10-14T17:52:16.688Z,3.05
2022-10-14T17:58:20.709Z,2.30
2022-10-14T18:01:37.444Z,1.80
2022-10-14T18:04:45.548Z,1.20
2022-10-14T18:07:47.405Z,1.48
2022-10-14T18:10:49.348Z,1.25
2022-10-14T18:13:56.492Z,1.15
2022-10-14T18:16:58.388Z,1.10
2022-10-14T18:20:00.241Z,1.17
2022-10-14T18:23:02.160Z,1.10
2022-10-14T18:26:09.439Z,1.30
2022-10-14T18:29:14.489Z,1.10
2022-10-14T18:32:16.614Z,1.15
2022-10-14T18:35:18.479Z,0.95
2022-10-14T18:38:20.373Z,1.10
2022-10-14T18:41:23.017Z,1.05
2022-10-14T18:44:24.892Z,1.15
2022-10-14T18:47:27.834Z,1.33
2022-10-14T18:50:29.684Z,1.52
2022-10-14T18:53:33.063Z,1.80
2022-10-14T18:56:37.072Z,1.40
2022-10-14T18:59:38.958Z,1.30
2022-10-14T19:02:40.921Z,1.92
2022-10-14T19:05:43.229Z,2.55
2022-10-14T19:08:45.498Z,2.58
2022-10-14T19:14:52.070Z,2.05
2022-10-14T19:17:54.697Z,2.03
2022-10-14T19:21:07.493Z,1.50
2022-10-14T19:24:11.952Z,1.10
2022-10-14T19:27:13.846Z,1.95
2022-10-14T19:30:15.856Z,1.38
2022-10-14T19:33:17.791Z,1.52
2022-10-14T19:36:21.188Z,1.25
2022-10-14T19:39:23.288Z,1.10
2022-10-14T19:42:25.164Z,1.60
2022-10-14T19:45:27.088Z,1.20
2022-10-14T19:48:29.115Z,1.30
2022-10-14T19:51:32.768Z,1.63
2022-10-14T19:54:34.698Z,1.10
2022-10-14T19:57:36.609Z,1.10
2022-10-14T20:00:38.574Z,1.27
2022-10-14T20:03:41.420Z,1.05
2022-10-14T20:06:43.432Z,1.70
2022-10-14T20:09:45.321Z,1.67
2022-10-14T20:12:47.364Z,1.30
2022-10-14T20:15:53.940Z,1.73
2022-10-14T20:18:56.214Z,1.38
2022-10-14T20:24:59.886Z,1.60
2022-10-14T20:28:02.344Z,1.15
2022-10-14T20:31:17.951Z,1.40
2022-10-14T20:34:19.922Z,1.50
2022-10-14T20:37:24.294Z,1.55
2022-10-14T20:40:29.556Z,1.90
2022-10-14T20:46:33.383Z,1.52
2022-10-14T20:49:35.226Z,1.10
2022-10-14T20:52:37.186Z,1.50
2022-10-14T20:55:39.120Z,0.90
2022-10-14T20:58:41.701Z,0.60
2022-10-14T21:01:43.647Z,0.70
2022-10-14T21:04:49.695Z,0.80
2022-10-14T21:07:52.149Z,0.52
2022-10-14T21:10:58.737Z,0.52
2022-10-14T21:14:00.832Z,0.50
2022-10-14T21:17:04.202Z,0.30
2022-10-14T21:20:06.793Z,0.60
2022-10-14T21:23:08.731Z,0.55
2022-10-14T21:26:10.948Z,0.50
2022-10-14T21:32:15.453Z,0.47
2022-10-14T21:38:19.606Z,0.43
2022-10-14T21:41:21.605Z,0.40
2022-10-14T21:44:25.280Z,0.50
2022-10-14T21:47:29.544Z,0.68
2022-10-14T21:50:31.962Z,0.60
2022-10-14T21:53:34.896Z,0.40
2022-10-14T21:56:37.774Z,0.50
2022-10-14T21:59:39.704Z,0.50
2022-10-14T22:02:41.724Z,0.40
2022-10-14T22:05:44.779Z,0.50
2022-10-14T22:08:49.612Z,0.50
2022-10-14T22:11:52.956Z,0.43
2022-10-14T22:14:54.998Z,0.70
2022-10-14T22:17:56.961Z,0.47
2022-10-14T22:21:05.928Z,0.50
2022-10-14T22:27:12.457Z,0.40
2022-10-14T22:30:15.041Z,0.50
2022-10-14T22:33:16.946Z,0.60
2022-10-14T22:36:23.526Z,0.50
2022-10-14T22:39:26.272Z,0.63
2022-10-14T22:45:31.005Z,0.60
2022-10-14T22:48:33.481Z,0.50
2022-10-14T22:51:39.630Z,0.50
2022-10-14T22:54:42.985Z,0.40
2022-10-14T22:57:47.245Z,0.70
2022-10-14T23:00:49.182Z,0.47
2022-10-14T23:03:51.089Z,0.40
2022-10-14T23:06:53.188Z,0.45
2022-10-14T23:12:57.135Z,0.40
2022-10-14T23:15:59.773Z,0.57
2022-10-14T23:19:01.722Z,0.30
2022-10-14T23:22:03.738Z,0.35
2022-10-14T23:25:06.200Z,0.45
2022-10-14T23:28:08.488Z,0.50
2022-10-14T23:34:14.335Z,0.57
2022-10-14T23:37:16.467Z,0.30
2022-10-14T23:40:18.748Z,0.57
2022-10-14T23:43:20.751Z,0.40
2022-10-14T23:46:23.183Z,0.32
2022-10-14T23:49:26.291Z,0.40
2022-10-14T23:52:28.670Z,0.40
2022-10-14T23:58:33.897Z,0.30
